sensor_id;sensor_type;location;lat;lon;timestamp;temperature;humidity
7077;DHT22;3579;48.956;9.154;2022-12-08T00:01:22;18.00;48.90
7077;DHT22;3579;48.956;9.154;2022-12-08T00:03:49;18.00;48.90
7077;DHT22;3579;48.956;9.154;2022-12-08T00:06:37;18.00;48.90
7077;DHT22;3579;48.956;9.154;2022-12-08T00:09:33;18.00;48.90
7077;DHT22;3579;48.956;9.154;2022-12-08T00:14:28;18.00;49.00
7077;DHT22;3579;48.956;9.154;2022-12-08T00:16:55;18.00;49.00
7077;DHT22;3579;48.956;9.154;2022-12-08T00:19:22;18.00;49.00
7077;DHT22;3579;48.956;9.154;2022-12-08T00:21:50;17.90;49.00
7077;DHT22;3579;48.956;9.154;2022-12-08T00:24:16;17.90;48.90
7077;DHT22;3579;48.956;9.154;2022-12-08T00:26:43;17.90;48.90
7077;DHT22;3579;48.956;9.154;2022-12-08T00:29:09;17.90;49.00
7077;DHT22;3579;48.956;9.154;2022-12-08T00:31:36;17.90;49.00
7077;DHT22;3579;48.956;9.154;2022-12-08T00:34:02;17.90;49.00
7077;DHT22;3579;48.956;9.154;2022-12-08T00:36:28;17.90;49.10
7077;DHT22;3579;48.956;9.154;2022-12-08T00:38:56;17.90;49.10
7077;DHT22;3579;48.956;9.154;2022-12-08T00:41:24;17.80;49.00
7077;DHT22;3579;48.956;9.154;2022-12-08T00:44:11;17.80;49.10
7077;DHT22;3579;48.956;9.154;2022-12-08T00:46:38;17.80;49.10
7077;DHT22;3579;48.956;9.154;2022-12-08T00:49:04;17.80;49.10
7077;DHT22;3579;48.956;9.154;2022-12-08T00:51:31;17.70;49.10
7077;DHT22;3579;48.956;9.154;2022-12-08T00:53:57;17.70;49.10
7077;DHT22;3579;48.956;9.154;2022-12-08T00:56:24;17.70;49.10
7077;DHT22;3579;48.956;9.154;2022-12-08T00:58:50;17.70;49.10
7077;DHT22;3579;48.956;9.154;2022-12-08T01:01:17;17.70;49.10
7077;DHT22;3579;48.956;9.154;2022-12-08T01:03:43;17.70;49.10
7077;DHT22;3579;48.956;9.154;2022-12-08T01:06:10;17.70;49.10
7077;DHT22;3579;48.956;9.154;2022-12-08T01:08:37;17.70;49.10
7077;DHT22;3579;48.956;9.154;2022-12-08T01:11:05;17.70;49.20
7077;DHT22;3579;48.956;9.154;2022-12-08T01:13:31;17.70;49.20
7077;DHT22;3579;48.956;9.154;2022-12-08T01:15:57;17.70;49.20
7077;DHT22;3579;48.956;9.154;2022-12-08T01:18:24;17.70;49.20
7077;DHT22;3579;48.956;9.154;2022-12-08T01:20:51;17.70;49.20
7077;DHT22;3579;48.956;9.154;2022-12-08T01:23:17;17.70;49.20
7077;DHT22;3579;48.956;9.154;2022-12-08T01:25:43;17.70;49.20
7077;DHT22;3579;48.956;9.154;2022-12-08T01:28:09;17.70;49.30
7077;DHT22;3579;48.956;9.154;2022-12-08T01:30:38;17.70;49.30
7077;DHT22;3579;48.956;9.154;2022-12-08T01:33:04;17.70;49.30
7077;DHT22;3579;48.956;9.154;2022-12-08T01:35:30;17.70;49.30
7077;DHT22;3579;48.956;9.154;2022-12-08T01:37:56;17.60;49.20
7077;DHT22;3579;48.956;9.154;2022-12-08T01:40:22;17.60;49.20
7077;DHT22;3579;48.956;9.154;2022-12-08T01:42:48;17.60;49.30
7077;DHT22;3579;48.956;9.154;2022-12-08T01:45:25;17.60;49.30
7077;DHT22;3579;48.956;9.154;2022-12-08T01:47:55;17.60;49.30
7077;DHT22;3579;48.956;9.154;2022-12-08T01:50:22;17.50;49.30
7077;DHT22;3579;48.956;9.154;2022-12-08T01:52:55;17.50;49.30
7077;DHT22;3579;48.956;9.154;2022-12-08T01:55:34;17.50;49.30
7077;DHT22;3579;48.956;9.154;2022-12-08T01:58:24;17.50;49.30
7077;DHT22;3579;48.956;9.154;2022-12-08T02:00:51;17.50;49.30
7077;DHT22;3579;48.956;9.154;2022-12-08T02:03:24;17.50;49.30
7077;DHT22;3579;48.956;9.154;2022-12-08T02:05:51;17.50;49.30
7077;DHT22;3579;48.956;9.154;2022-12-08T02:08:18;17.50;49.30
7077;DHT22;3579;48.956;9.154;2022-12-08T02:10:46;17.40;49.20
7077;DHT22;3579;48.956;9.154;2022-12-08T02:13:14;17.50;49.40
7077;DHT22;3579;48.956;9.154;2022-12-08T02:18:31;17.50;49.40
7077;DHT22;3579;48.956;9.154;2022-12-08T02:21:10;17.50;49.40
7077;DHT22;3579;48.956;9.154;2022-12-08T02:35:10;17.50;49.40
7077;DHT22;3579;48.956;9.154;2022-12-08T02:38:14;17.40;49.40
7077;DHT22;3579;48.956;9.154;2022-12-08T02:43:41;17.40;49.40
7077;DHT22;3579;48.956;9.154;2022-12-08T02:46:11;17.00;49.10
7077;DHT22;3579;48.956;9.154;2022-12-08T02:48:39;17.40;49.50
7077;DHT22;3579;48.956;9.154;2022-12-08T02:51:06;17.40;49.50
7077;DHT22;3579;48.956;9.154;2022-12-08T02:53:32;17.40;49.50
7077;DHT22;3579;48.956;9.154;2022-12-08T03:01:26;17.30;49.50
7077;DHT22;3579;48.956;9.154;2022-12-08T03:06:56;17.30;49.50
7077;DHT22;3579;48.956;9.154;2022-12-08T03:15:06;17.20;49.40
7077;DHT22;3579;48.956;9.154;2022-12-08T03:17:34;17.20;49.50
7077;DHT22;3579;48.956;9.154;2022-12-08T03:20:05;17.20;49.50
7077;DHT22;3579;48.956;9.154;2022-12-08T03:22:34;17.20;49.50
7077;DHT22;3579;48.956;9.154;2022-12-08T03:25:01;17.20;50.00
7077;DHT22;3579;48.956;9.154;2022-12-08T03:27:28;17.20;49.50
7077;DHT22;3579;48.956;9.154;2022-12-08T03:29:57;17.20;49.50
7077;DHT22;3579;48.956;9.154;2022-12-08T03:35:16;17.20;49.40
7077;DHT22;3579;48.956;9.154;2022-12-08T03:37:44;17.20;49.50
7077;DHT22;3579;48.956;9.154;2022-12-08T03:40:15;17.20;49.50
7077;DHT22;3579;48.956;9.154;2022-12-08T03:42:41;17.20;49.50
7077;DHT22;3579;48.956;9.154;2022-12-08T03:45:08;17.20;49.50
7077;DHT22;3579;48.956;9.154;2022-12-08T03:47:34;17.20;49.50
7077;DHT22;3579;48.956;9.154;2022-12-08T03:50:00;17.20;49.60
7077;DHT22;3579;48.956;9.154;2022-12-08T03:52:26;17.20;49.60
7077;DHT22;3579;48.956;9.154;2022-12-08T03:54:52;17.20;49.70
7077;DHT22;3579;48.956;9.154;2022-12-08T03:57:18;17.10;49.60
7077;DHT22;3579;48.956;9.154;2022-12-08T03:59:44;17.10;49.60
7077;DHT22;3579;48.956;9.154;2022-12-08T04:02:10;17.10;49.60
7077;DHT22;3579;48.956;9.154;2022-12-08T04:04:36;17.10;49.60
7077;DHT22;3579;48.956;9.154;2022-12-08T04:07:02;17.10;49.60
7077;DHT22;3579;48.956;9.154;2022-12-08T04:09:28;17.10;49.70
7077;DHT22;3579;48.956;9.154;2022-12-08T04:11:54;17.10;49.70
7077;DHT22;3579;48.956;9.154;2022-12-08T04:14:20;17.10;49.70
7077;DHT22;3579;48.956;9.154;2022-12-08T04:16:47;17.10;49.70
7077;DHT22;3579;48.956;9.154;2022-12-08T04:19:13;17.10;49.70
7077;DHT22;3579;48.956;9.154;2022-12-08T04:21:39;17.10;49.70
7077;DHT22;3579;48.956;9.154;2022-12-08T04:24:06;17.00;49.60
7077;DHT22;3579;48.956;9.154;2022-12-08T04:26:32;17.00;49.60
7077;DHT22;3579;48.956;9.154;2022-12-08T04:28:58;17.00;49.60
7077;DHT22;3579;48.956;9.154;2022-12-08T04:31:24;17.00;49.60
7077;DHT22;3579;48.956;9.154;2022-12-08T04:33:51;17.00;50.20
7077;DHT22;3579;48.956;9.154;2022-12-08T04:36:17;17.00;49.70
7077;DHT22;3579;48.956;9.154;2022-12-08T04:38:43;17.00;49.70
7077;DHT22;3579;48.956;9.154;2022-12-08T04:41:09;17.00;49.70
7077;DHT22;3579;48.956;9.154;2022-12-08T04:43:35;17.00;49.70
7077;DHT22;3579;48.956;9.154;2022-12-08T04:46:05;17.00;49.70
7077;DHT22;3579;48.956;9.154;2022-12-08T04:48:32;17.00;49.70
7077;DHT22;3579;48.956;9.154;2022-12-08T04:50:58;17.00;49.60
7077;DHT22;3579;48.956;9.154;2022-12-08T04:53:24;17.00;49.70
7077;DHT22;3579;48.956;9.154;2022-12-08T04:55:51;17.00;49.60
7077;DHT22;3579;48.956;9.154;2022-12-08T04:58:18;17.00;49.60
7077;DHT22;3579;48.956;9.154;2022-12-08T05:00:45;17.10;49.60
7077;DHT22;3579;48.956;9.154;2022-12-08T05:03:12;17.00;49.50
7077;DHT22;3579;48.956;9.154;2022-12-08T05:05:39;17.00;49.50
7077;DHT22;3579;48.956;9.154;2022-12-08T05:08:06;17.00;49.60
7077;DHT22;3579;48.956;9.154;2022-12-08T05:10:32;17.00;49.60
7077;DHT22;3579;48.956;9.154;2022-12-08T05:12:59;17.00;49.60
7077;DHT22;3579;48.956;9.154;2022-12-08T05:15:25;17.00;49.60
7077;DHT22;3579;48.956;9.154;2022-12-08T05:17:51;17.00;49.60
7077;DHT22;3579;48.956;9.154;2022-12-08T05:20:17;17.00;49.70
7077;DHT22;3579;48.956;9.154;2022-12-08T05:22:43;17.00;49.70
7077;DHT22;3579;48.956;9.154;2022-12-08T05:25:09;17.00;49.80
7077;DHT22;3579;48.956;9.154;2022-12-08T05:27:35;16.90;49.70
7077;DHT22;3579;48.956;9.154;2022-12-08T05:30:02;16.90;49.70
7077;DHT22;3579;48.956;9.154;2022-12-08T05:32:28;16.90;49.70
7077;DHT22;3579;48.956;9.154;2022-12-08T05:34:54;16.90;49.70
7077;DHT22;3579;48.956;9.154;2022-12-08T05:37:20;16.90;49.70
7077;DHT22;3579;48.956;9.154;2022-12-08T05:39:46;16.90;49.70
7077;DHT22;3579;48.956;9.154;2022-12-08T05:42:12;16.90;49.70
7077;DHT22;3579;48.956;9.154;2022-12-08T05:44:38;16.90;49.80
7077;DHT22;3579;48.956;9.154;2022-12-08T05:47:04;16.90;49.80
7077;DHT22;3579;48.956;9.154;2022-12-08T05:49:31;16.80;49.70
7077;DHT22;3579;48.956;9.154;2022-12-08T05:51:57;16.80;49.70
7077;DHT22;3579;48.956;9.154;2022-12-08T05:54:26;17.60;50.40
7077;DHT22;3579;48.956;9.154;2022-12-08T05:56:52;16.80;49.70
7077;DHT22;3579;48.956;9.154;2022-12-08T05:59:19;16.80;49.80
7077;DHT22;3579;48.956;9.154;2022-12-08T06:01:45;16.80;49.80
7077;DHT22;3579;48.956;9.154;2022-12-08T06:04:11;16.80;49.80
7077;DHT22;3579;48.956;9.154;2022-12-08T06:06:37;16.80;49.70
7077;DHT22;3579;48.956;9.154;2022-12-08T06:31:14;16.80;49.60
7077;DHT22;3579;48.956;9.154;2022-12-08T06:33:40;16.80;49.70
7077;DHT22;3579;48.956;9.154;2022-12-08T06:36:06;16.80;49.70
7077;DHT22;3579;48.956;9.154;2022-12-08T06:38:33;16.80;49.60
7077;DHT22;3579;48.956;9.154;2022-12-08T06:41:00;16.80;49.70
7077;DHT22;3579;48.956;9.154;2022-12-08T06:43:26;16.80;49.60
7077;DHT22;3579;48.956;9.154;2022-12-08T06:45:52;16.80;49.60
7077;DHT22;3579;48.956;9.154;2022-12-08T06:48:18;16.80;49.60
7077;DHT22;3579;48.956;9.154;2022-12-08T06:50:44;16.80;49.70
7077;DHT22;3579;48.956;9.154;2022-12-08T06:53:12;16.80;49.60
7077;DHT22;3579;48.956;9.154;2022-12-08T06:55:46;16.80;49.60
7077;DHT22;3579;48.956;9.154;2022-12-08T06:58:13;16.80;49.60
7077;DHT22;3579;48.956;9.154;2022-12-08T07:00:40;16.70;49.50
7077;DHT22;3579;48.956;9.154;2022-12-08T07:03:08;16.70;49.60
7077;DHT22;3579;48.956;9.154;2022-12-08T07:05:36;16.70;49.50
7077;DHT22;3579;48.956;9.154;2022-12-08T07:08:06;16.70;49.50
7077;DHT22;3579;48.956;9.154;2022-12-08T07:10:33;16.70;49.50
7077;DHT22;3579;48.956;9.154;2022-12-08T07:12:59;16.70;49.60
7077;DHT22;3579;48.956;9.154;2022-12-08T07:15:25;16.70;49.50
7077;DHT22;3579;48.956;9.154;2022-12-08T07:17:52;16.70;49.50
7077;DHT22;3579;48.956;9.154;2022-12-08T07:20:18;16.70;49.50
7077;DHT22;3579;48.956;9.154;2022-12-08T07:22:51;16.70;49.50
7077;DHT22;3579;48.956;9.154;2022-12-08T07:25:18;16.70;49.50
7077;DHT22;3579;48.956;9.154;2022-12-08T07:27:45;16.70;49.50
7077;DHT22;3579;48.956;9.154;2022-12-08T07:30:12;16.70;49.50
7077;DHT22;3579;48.956;9.154;2022-12-08T07:32:38;16.80;49.50
7077;DHT22;3579;48.956;9.154;2022-12-08T07:35:05;16.80;49.40
7077;DHT22;3579;48.956;9.154;2022-12-08T07:37:33;16.80;49.40
7077;DHT22;3579;48.956;9.154;2022-12-08T07:39:59;16.80;49.30
7077;DHT22;3579;48.956;9.154;2022-12-08T07:42:26;16.90;49.40
7077;DHT22;3579;48.956;9.154;2022-12-08T07:44:52;16.90;49.40
7077;DHT22;3579;48.956;9.154;2022-12-08T07:47:19;16.90;49.40
7077;DHT22;3579;48.956;9.154;2022-12-08T07:49:46;16.90;49.30
7077;DHT22;3579;48.956;9.154;2022-12-08T07:52:17;16.90;49.30
7077;DHT22;3579;48.956;9.154;2022-12-08T07:54:44;16.90;49.30
7077;DHT22;3579;48.956;9.154;2022-12-08T07:57:10;16.90;49.30
7077;DHT22;3579;48.956;9.154;2022-12-08T07:59:37;16.90;49.30
7077;DHT22;3579;48.956;9.154;2022-12-08T08:02:03;17.00;49.40
7077;DHT22;3579;48.956;9.154;2022-12-08T08:04:29;17.00;49.40
7077;DHT22;3579;48.956;9.154;2022-12-08T08:06:56;17.00;49.30
7077;DHT22;3579;48.956;9.154;2022-12-08T08:09:22;17.00;49.30
7077;DHT22;3579;48.956;9.154;2022-12-08T08:11:48;17.10;49.40
7077;DHT22;3579;48.956;9.154;2022-12-08T08:14:14;17.10;49.30
7077;DHT22;3579;48.956;9.154;2022-12-08T08:16:40;17.10;49.40
7077;DHT22;3579;48.956;9.154;2022-12-08T08:19:11;17.10;49.50
7077;DHT22;3579;48.956;9.154;2022-12-08T08:21:38;17.30;49.60
7077;DHT22;3579;48.956;9.154;2022-12-08T08:24:07;17.50;49.50
7077;DHT22;3579;48.956;9.154;2022-12-08T08:26:36;17.90;49.20
7077;DHT22;3579;48.956;9.154;2022-12-08T08:29:02;18.10;48.80
7077;DHT22;3579;48.956;9.154;2022-12-08T08:31:29;18.30;48.80
7077;DHT22;3579;48.956;9.154;2022-12-08T08:33:55;18.40;48.80
7077;DHT22;3579;48.956;9.154;2022-12-08T08:36:22;18.50;49.00
7077;DHT22;3579;48.956;9.154;2022-12-08T08:38:48;18.60;50.30
7077;DHT22;3579;48.956;9.154;2022-12-08T08:41:15;18.70;52.00
7077;DHT22;3579;48.956;9.154;2022-12-08T08:43:41;18.80;53.50
7077;DHT22;3579;48.956;9.154;2022-12-08T08:46:09;18.80;52.80
7077;DHT22;3579;48.956;9.154;2022-12-08T08:48:40;19.00;53.40
7077;DHT22;3579;48.956;9.154;2022-12-08T08:51:10;19.10;53.50
7077;DHT22;3579;48.956;9.154;2022-12-08T08:53:37;19.30;53.60
7077;DHT22;3579;48.956;9.154;2022-12-08T08:56:12;19.80;53.30
7077;DHT22;3579;48.956;9.154;2022-12-08T08:58:39;19.90;53.40
7077;DHT22;3579;48.956;9.154;2022-12-08T09:01:05;20.00;53.60
7077;DHT22;3579;48.956;9.154;2022-12-08T09:03:32;20.00;53.80
7077;DHT22;3579;48.956;9.154;2022-12-08T09:05:59;20.10;54.30
7077;DHT22;3579;48.956;9.154;2022-12-08T09:08:25;20.30;54.40
7077;DHT22;3579;48.956;9.154;2022-12-08T09:10:52;20.50;54.20
7077;DHT22;3579;48.956;9.154;2022-12-08T09:13:19;20.70;54.20
7077;DHT22;3579;48.956;9.154;2022-12-08T09:15:47;20.90;54.40
7077;DHT22;3579;48.956;9.154;2022-12-08T09:18:14;21.00;53.90
7077;DHT22;3579;48.956;9.154;2022-12-08T09:20:40;21.00;54.10
7077;DHT22;3579;48.956;9.154;2022-12-08T09:23:06;21.10;54.10
7077;DHT22;3579;48.956;9.154;2022-12-08T09:25:33;21.20;52.00
7077;DHT22;3579;48.956;9.154;2022-12-08T09:28:02;21.40;51.60
7077;DHT22;3579;48.956;9.154;2022-12-08T09:30:29;21.40;51.20
7077;DHT22;3579;48.956;9.154;2022-12-08T09:32:57;21.70;50.70
7077;DHT22;3579;48.956;9.154;2022-12-08T09:35:23;21.80;50.60
7077;DHT22;3579;48.956;9.154;2022-12-08T09:37:49;22.00;50.80
7077;DHT22;3579;48.956;9.154;2022-12-08T09:40:19;22.00;50.60
7077;DHT22;3579;48.956;9.154;2022-12-08T09:43:03;22.20;50.80
7077;DHT22;3579;48.956;9.154;2022-12-08T09:45:34;22.40;50.60
7077;DHT22;3579;48.956;9.154;2022-12-08T09:55:55;22.80;50.60
7077;DHT22;3579;48.956;9.154;2022-12-08T10:01:35;23.00;50.70
7077;DHT22;3579;48.956;9.154;2022-12-08T10:04:24;23.40;50.20
7077;DHT22;3579;48.956;9.154;2022-12-08T10:07:14;23.40;50.30
7077;DHT22;3579;48.956;9.154;2022-12-08T10:12:58;23.30;47.40
7077;DHT22;3579;48.956;9.154;2022-12-08T10:18:19;23.60;47.90
7077;DHT22;3579;48.956;9.154;2022-12-08T10:20:47;23.70;48.00
7077;DHT22;3579;48.956;9.154;2022-12-08T10:23:35;23.80;48.20
7077;DHT22;3579;48.956;9.154;2022-12-08T10:26:13;23.90;48.30
7077;DHT22;3579;48.956;9.154;2022-12-08T10:28:41;24.00;48.40
7077;DHT22;3579;48.956;9.154;2022-12-08T10:33:41;24.20;48.20
7077;DHT22;3579;48.956;9.154;2022-12-08T10:36:09;24.30;48.00
7077;DHT22;3579;48.956;9.154;2022-12-08T10:38:38;24.40;48.20
7077;DHT22;3579;48.956;9.154;2022-12-08T10:41:06;24.50;48.10
7077;DHT22;3579;48.956;9.154;2022-12-08T10:43:47;24.50;47.80
7077;DHT22;3579;48.956;9.154;2022-12-08T10:46:19;24.60;47.90
7077;DHT22;3579;48.956;9.154;2022-12-08T10:53:59;24.80;47.50
7077;DHT22;3579;48.956;9.154;2022-12-08T10:56:28;24.80;47.70
7077;DHT22;3579;48.956;9.154;2022-12-08T10:59:16;24.90;47.60
7077;DHT22;3579;48.956;9.154;2022-12-08T11:01:56;24.90;47.60
7077;DHT22;3579;48.956;9.154;2022-12-08T11:04:42;24.90;47.70
7077;DHT22;3579;48.956;9.154;2022-12-08T11:07:09;24.90;47.40
7077;DHT22;3579;48.956;9.154;2022-12-08T11:09:45;25.00;47.90
7077;DHT22;3579;48.956;9.154;2022-12-08T11:12:16;25.00;48.40
7077;DHT22;3579;48.956;9.154;2022-12-08T11:14:59;25.10;49.00
7077;DHT22;3579;48.956;9.154;2022-12-08T11:17:35;25.10;49.10
7077;DHT22;3579;48.956;9.154;2022-12-08T11:22:53;25.10;49.40
7077;DHT22;3579;48.956;9.154;2022-12-08T11:25:26;25.10;49.70
7077;DHT22;3579;48.956;9.154;2022-12-08T11:27:56;25.10;50.00
7077;DHT22;3579;48.956;9.154;2022-12-08T11:30:43;25.20;50.00
7077;DHT22;3579;48.956;9.154;2022-12-08T11:33:34;25.30;49.90
7077;DHT22;3579;48.956;9.154;2022-12-08T11:36:06;25.40;50.00
7077;DHT22;3579;48.956;9.154;2022-12-08T11:38:40;25.40;50.10
7077;DHT22;3579;48.956;9.154;2022-12-08T11:41:19;25.40;50.10
7077;DHT22;3579;48.956;9.154;2022-12-08T11:46:33;25.40;50.30
7077;DHT22;3579;48.956;9.154;2022-12-08T11:49:04;25.40;50.40
7077;DHT22;3579;48.956;9.154;2022-12-08T11:56:52;25.00;45.10
7077;DHT22;3579;48.956;9.154;2022-12-08T11:59:31;24.90;46.40
7077;DHT22;3579;48.956;9.154;2022-12-08T12:02:03;25.00;46.90
7077;DHT22;3579;48.956;9.154;2022-12-08T12:24:13;24.90;48.40
7077;DHT22;3579;48.956;9.154;2022-12-08T12:27:01;24.90;48.30
7077;DHT22;3579;48.956;9.154;2022-12-08T12:29:33;24.90;48.30
7077;DHT22;3579;48.956;9.154;2022-12-08T12:32:03;24.90;49.00
7077;DHT22;3579;48.956;9.154;2022-12-08T12:34:36;24.90;48.60
7077;DHT22;3579;48.956;9.154;2022-12-08T12:37:04;24.90;48.80
7077;DHT22;3579;48.956;9.154;2022-12-08T12:39:54;24.80;46.00
7077;DHT22;3579;48.956;9.154;2022-12-08T12:48:34;24.50;44.00
7077;DHT22;3579;48.956;9.154;2022-12-08T12:50:49;24.60;44.20
7077;DHT22;3579;48.956;9.154;2022-12-08T12:55:57;24.60;44.90
7077;DHT22;3579;48.956;9.154;2022-12-08T13:03:48;24.70;45.70
7077;DHT22;3579;48.956;9.154;2022-12-08T13:06:31;24.70;45.90
7077;DHT22;3579;48.956;9.154;2022-12-08T13:08:59;24.70;46.00
7077;DHT22;3579;48.956;9.154;2022-12-08T13:11:25;24.70;46.00
7077;DHT22;3579;48.956;9.154;2022-12-08T13:14:00;24.60;44.30
7077;DHT22;3579;48.956;9.154;2022-12-08T13:16:32;24.50;44.30
7077;DHT22;3579;48.956;9.154;2022-12-08T13:19:03;24.50;44.40
7077;DHT22;3579;48.956;9.154;2022-12-08T13:21:37;24.40;44.40
7077;DHT22;3579;48.956;9.154;2022-12-08T13:29:32;24.30;44.30
7077;DHT22;3579;48.956;9.154;2022-12-08T13:32:03;24.30;44.60
7077;DHT22;3579;48.956;9.154;2022-12-08T13:47:34;24.30;44.80
7077;DHT22;3579;48.956;9.154;2022-12-08T13:50:14;24.20;44.50
7077;DHT22;3579;48.956;9.154;2022-12-08T13:52:53;24.20;44.50
7077;DHT22;3579;48.956;9.154;2022-12-08T13:55:38;24.20;44.60
7077;DHT22;3579;48.956;9.154;2022-12-08T13:58:05;24.80;45.30
7077;DHT22;3579;48.956;9.154;2022-12-08T14:00:31;24.20;45.10
7077;DHT22;3579;48.956;9.154;2022-12-08T14:02:59;24.30;45.40
7077;DHT22;3579;48.956;9.154;2022-12-08T14:05:37;24.40;45.70
7077;DHT22;3579;48.956;9.154;2022-12-08T14:08:13;24.40;46.00
7077;DHT22;3579;48.956;9.154;2022-12-08T14:10:41;24.40;46.20
7077;DHT22;3579;48.956;9.154;2022-12-08T14:13:10;24.40;46.40
7077;DHT22;3579;48.956;9.154;2022-12-08T14:15:38;24.50;46.60
7077;DHT22;3579;48.956;9.154;2022-12-08T14:18:18;24.40;46.10
7077;DHT22;3579;48.956;9.154;2022-12-08T14:21:04;24.30;45.00
7077;DHT22;3579;48.956;9.154;2022-12-08T14:23:35;24.20;44.70
7077;DHT22;3579;48.956;9.154;2022-12-08T14:26:03;24.20;44.80
7077;DHT22;3579;48.956;9.154;2022-12-08T14:28:31;24.20;44.80
7077;DHT22;3579;48.956;9.154;2022-12-08T14:30:58;24.20;45.20
7077;DHT22;3579;48.956;9.154;2022-12-08T14:33:26;24.10;44.60
7077;DHT22;3579;48.956;9.154;2022-12-08T14:35:54;24.10;44.50
7077;DHT22;3579;48.956;9.154;2022-12-08T14:38:22;24.00;44.50
7077;DHT22;3579;48.956;9.154;2022-12-08T14:41:01;24.00;44.60
7077;DHT22;3579;48.956;9.154;2022-12-08T14:43:29;24.00;44.60
7077;DHT22;3579;48.956;9.154;2022-12-08T14:45:59;24.00;44.80
7077;DHT22;3579;48.956;9.154;2022-12-08T14:56:36;24.10;44.90
7077;DHT22;3579;48.956;9.154;2022-12-08T15:01:46;24.00;44.30
7077;DHT22;3579;48.956;9.154;2022-12-08T15:04:17;24.00;44.40
7077;DHT22;3579;48.956;9.154;2022-12-08T15:07:20;23.90;44.40
7077;DHT22;3579;48.956;9.154;2022-12-08T15:10:04;23.90;44.50
7077;DHT22;3579;48.956;9.154;2022-12-08T15:12:31;23.90;44.60
7077;DHT22;3579;48.956;9.154;2022-12-08T15:15:14;23.90;44.00
7077;DHT22;3579;48.956;9.154;2022-12-08T15:17:49;23.70;40.30
7077;DHT22;3579;48.956;9.154;2022-12-08T15:20:41;23.80;42.30
7077;DHT22;3579;48.956;9.154;2022-12-08T15:23:48;23.70;42.80
7077;DHT22;3579;48.956;9.154;2022-12-08T15:26:20;23.70;43.20
7077;DHT22;3579;48.956;9.154;2022-12-08T15:28:47;23.70;43.40
7077;DHT22;3579;48.956;9.154;2022-12-08T15:31:13;23.70;43.60
7077;DHT22;3579;48.956;9.154;2022-12-08T15:33:40;23.70;43.60
7077;DHT22;3579;48.956;9.154;2022-12-08T15:36:08;23.70;43.60
7077;DHT22;3579;48.956;9.154;2022-12-08T15:38:34;23.60;43.60
7077;DHT22;3579;48.956;9.154;2022-12-08T15:41:01;23.60;43.70
7077;DHT22;3579;48.956;9.154;2022-12-08T15:43:28;23.60;43.70
7077;DHT22;3579;48.956;9.154;2022-12-08T15:45:55;23.60;43.80
7077;DHT22;3579;48.956;9.154;2022-12-08T15:48:24;23.60;43.80
7077;DHT22;3579;48.956;9.154;2022-12-08T15:50:52;23.60;43.80
7077;DHT22;3579;48.956;9.154;2022-12-08T15:53:18;23.60;44.00
7077;DHT22;3579;48.956;9.154;2022-12-08T15:55:45;23.60;44.10
7077;DHT22;3579;48.956;9.154;2022-12-08T15:58:18;23.60;44.00
7077;DHT22;3579;48.956;9.154;2022-12-08T16:00:45;23.60;44.00
7077;DHT22;3579;48.956;9.154;2022-12-08T16:03:28;23.60;44.00
7077;DHT22;3579;48.956;9.154;2022-12-08T16:05:56;23.60;44.00
7077;DHT22;3579;48.956;9.154;2022-12-08T16:08:24;23.60;44.00
7077;DHT22;3579;48.956;9.154;2022-12-08T16:10:50;23.60;44.10
7077;DHT22;3579;48.956;9.154;2022-12-08T16:13:18;23.60;44.00
7077;DHT22;3579;48.956;9.154;2022-12-08T16:16:05;23.60;44.10
7077;DHT22;3579;48.956;9.154;2022-12-08T16:18:34;23.60;44.00
7077;DHT22;3579;48.956;9.154;2022-12-08T16:21:01;23.60;44.10
7077;DHT22;3579;48.956;9.154;2022-12-08T16:23:28;23.60;44.10
7077;DHT22;3579;48.956;9.154;2022-12-08T16:25:54;23.60;44.10
7077;DHT22;3579;48.956;9.154;2022-12-08T16:28:20;23.60;44.10
7077;DHT22;3579;48.956;9.154;2022-12-08T16:30:46;23.60;44.10
7077;DHT22;3579;48.956;9.154;2022-12-08T16:33:12;23.60;44.10
7077;DHT22;3579;48.956;9.154;2022-12-08T16:35:40;23.50;44.00
7077;DHT22;3579;48.956;9.154;2022-12-08T16:38:07;23.60;44.20
7077;DHT22;3579;48.956;9.154;2022-12-08T16:40:35;23.50;44.10
7077;DHT22;3579;48.956;9.154;2022-12-08T16:43:21;23.50;44.10
7077;DHT22;3579;48.956;9.154;2022-12-08T16:45:47;23.50;44.20
7077;DHT22;3579;48.956;9.154;2022-12-08T16:48:13;23.50;44.20
7077;DHT22;3579;48.956;9.154;2022-12-08T16:50:43;23.50;44.20
7077;DHT22;3579;48.956;9.154;2022-12-08T16:53:10;23.50;44.20
7077;DHT22;3579;48.956;9.154;2022-12-08T16:55:37;23.50;44.20
7077;DHT22;3579;48.956;9.154;2022-12-08T16:58:04;23.40;44.10
7077;DHT22;3579;48.956;9.154;2022-12-08T17:00:32;23.40;44.10
7077;DHT22;3579;48.956;9.154;2022-12-08T17:03:03;23.40;44.20
7077;DHT22;3579;48.956;9.154;2022-12-08T17:05:30;23.40;44.10
7077;DHT22;3579;48.956;9.154;2022-12-08T17:07:56;23.40;44.20
7077;DHT22;3579;48.956;9.154;2022-12-08T17:10:26;23.40;44.20
7077;DHT22;3579;48.956;9.154;2022-12-08T17:12:53;23.40;44.10
7077;DHT22;3579;48.956;9.154;2022-12-08T17:15:22;23.40;44.20
7077;DHT22;3579;48.956;9.154;2022-12-08T17:17:50;23.40;44.10
7077;DHT22;3579;48.956;9.154;2022-12-08T17:20:22;23.40;44.20
7077;DHT22;3579;48.956;9.154;2022-12-08T17:22:49;23.40;44.20
7077;DHT22;3579;48.956;9.154;2022-12-08T17:25:15;23.40;44.20
7077;DHT22;3579;48.956;9.154;2022-12-08T17:27:41;23.30;44.10
7077;DHT22;3579;48.956;9.154;2022-12-08T17:30:09;23.30;44.10
7077;DHT22;3579;48.956;9.154;2022-12-08T17:32:37;23.40;44.10
7077;DHT22;3579;48.956;9.154;2022-12-08T17:35:03;23.30;44.40
7077;DHT22;3579;48.956;9.154;2022-12-08T17:37:30;23.30;44.50
7077;DHT22;3579;48.956;9.154;2022-12-08T17:39:56;23.30;44.50
7077;DHT22;3579;48.956;9.154;2022-12-08T17:42:22;23.30;44.40
7077;DHT22;3579;48.956;9.154;2022-12-08T17:44:51;23.30;44.40
7077;DHT22;3579;48.956;9.154;2022-12-08T17:47:18;23.30;44.40
7077;DHT22;3579;48.956;9.154;2022-12-08T17:49:44;23.30;44.40
7077;DHT22;3579;48.956;9.154;2022-12-08T17:52:10;23.30;44.40
7077;DHT22;3579;48.956;9.154;2022-12-08T17:54:37;23.30;44.30
7077;DHT22;3579;48.956;9.154;2022-12-08T17:57:03;23.30;44.40
7077;DHT22;3579;48.956;9.154;2022-12-08T17:59:31;23.20;44.30
7077;DHT22;3579;48.956;9.154;2022-12-08T18:01:58;23.30;44.40
7077;DHT22;3579;48.956;9.154;2022-12-08T18:04:26;23.30;44.40
7077;DHT22;3579;48.956;9.154;2022-12-08T18:06:53;23.20;44.30
7077;DHT22;3579;48.956;9.154;2022-12-08T18:09:20;23.30;44.30
7077;DHT22;3579;48.956;9.154;2022-12-08T18:11:46;23.20;44.20
7077;DHT22;3579;48.956;9.154;2022-12-08T18:14:13;23.20;44.20
7077;DHT22;3579;48.956;9.154;2022-12-08T18:16:42;23.20;44.20
7077;DHT22;3579;48.956;9.154;2022-12-08T18:19:10;23.20;44.20
7077;DHT22;3579;48.956;9.154;2022-12-08T18:21:37;23.20;44.20
7077;DHT22;3579;48.956;9.154;2022-12-08T18:24:04;23.20;44.20
7077;DHT22;3579;48.956;9.154;2022-12-08T18:26:30;23.30;44.30
7077;DHT22;3579;48.956;9.154;2022-12-08T18:28:57;23.20;44.20
7077;DHT22;3579;48.956;9.154;2022-12-08T18:31:23;23.20;44.20
7077;DHT22;3579;48.956;9.154;2022-12-08T18:33:51;23.20;44.20
7077;DHT22;3579;48.956;9.154;2022-12-08T18:36:21;23.20;44.30
7077;DHT22;3579;48.956;9.154;2022-12-08T18:38:47;23.20;44.30
7077;DHT22;3579;48.956;9.154;2022-12-08T18:41:16;23.20;44.30
7077;DHT22;3579;48.956;9.154;2022-12-08T18:43:43;23.20;44.40
7077;DHT22;3579;48.956;9.154;2022-12-08T18:46:11;23.20;44.40
7077;DHT22;3579;48.956;9.154;2022-12-08T18:48:48;23.20;44.40
7077;DHT22;3579;48.956;9.154;2022-12-08T18:51:16;23.20;44.40
7077;DHT22;3579;48.956;9.154;2022-12-08T18:53:43;23.20;44.40